createdAt,value
2022-11-04T00:01:47.443Z,0.73
2022-11-04T00:04:15.964Z,0.32
2022-11-04T00:06:42.903Z,0.60
2022-11-04T00:09:11.721Z,0.45
2022-11-04T00:11:57.002Z,0.40
2022-11-04T00:14:23.946Z,0.30
2022-11-04T00:17:09.354Z,0.88
2022-11-04T00:19:55.645Z,0.65
2022-11-04T00:22:44.806Z,0.60
2022-11-04T00:25:31.515Z,0.47
2022-11-04T00:28:24.680Z,0.45
2022-11-04T00:30:56.178Z,0.52
2022-11-04T00:33:26.492Z,0.35
2022-11-04T00:35:58.443Z,0.50
2022-11-04T00:38:25.805Z,0.57
2022-11-04T00:40:53.285Z,0.43
2022-11-04T00:43:20.273Z,0.55
2022-11-04T00:45:47.494Z,0.40
2022-11-04T00:48:14.947Z,0.32
2022-11-04T00:50:42.448Z,0.60
2022-11-04T00:53:10.024Z,0.55
2022-11-04T00:55:37.344Z,0.40
2022-11-04T00:58:04.392Z,0.57
2022-11-04T01:00:31.665Z,0.70
2022-11-04T01:03:00.344Z,0.40
2022-11-04T01:05:27.528Z,0.50
2022-11-04T01:07:54.625Z,0.30
2022-11-04T01:10:21.762Z,0.20
2022-11-04T01:12:49.032Z,0.40
2022-11-04T01:15:16.014Z,0.57
2022-11-04T01:17:43.009Z,0.10
2022-11-04T01:20:10.458Z,0.22
2022-11-04T01:22:37.881Z,0.20
2022-11-04T01:25:05.465Z,0.45
2022-11-04T01:27:32.521Z,0.20
2022-11-04T01:29:59.746Z,0.25
2022-11-04T01:32:28.287Z,0.10
2022-11-04T01:34:55.453Z,0.10
2022-11-04T01:37:22.355Z,0.32
2022-11-04T01:39:49.510Z,0.10
2022-11-04T01:42:17.970Z,0.10
2022-11-04T01:44:50.835Z,0.10
2022-11-04T01:47:25.513Z,0.15
2022-11-04T01:49:55.459Z,0.30
2022-11-04T01:52:45.435Z,0.10
2022-11-04T01:55:33.930Z,0.20
2022-11-04T01:58:06.427Z,0.10
2022-11-04T02:00:33.477Z,0.45
2022-11-04T02:03:04.531Z,0.00
2022-11-04T02:05:31.811Z,0.10
2022-11-04T02:07:59.025Z,0.10
2022-11-04T02:10:28.274Z,0.00
2022-11-04T02:12:55.928Z,0.10
2022-11-04T02:15:26.507Z,0.20
2022-11-04T02:18:18.026Z,0.00
2022-11-04T02:21:00.363Z,0.00
2022-11-04T02:23:45.549Z,0.00
2022-11-04T02:26:20.616Z,0.10
2022-11-04T02:29:25.422Z,0.10
2022-11-04T02:32:04.809Z,0.00
2022-11-04T02:35:01.786Z,0.00
2022-11-04T02:37:33.788Z,0.00
2022-11-04T02:40:11.107Z,0.20
2022-11-04T02:43:09.867Z,0.00
2022-11-04T02:45:42.696Z,0.10
2022-11-04T02:48:23.690Z,0.20
2022-11-04T02:51:12.140Z,0.40
2022-11-04T02:53:59.172Z,0.50
2022-11-04T02:56:26.242Z,0.55
2022-11-04T02:58:57.268Z,1.08
2022-11-04T03:01:25.144Z,1.40
2022-11-04T03:03:55.653Z,1.27
2022-11-04T03:06:23.564Z,1.40
2022-11-04T03:08:52.402Z,1.38
2022-11-04T03:11:24.462Z,1.77
2022-11-04T03:14:00.396Z,1.35
2022-11-04T03:16:43.161Z,2.28
2022-11-04T03:19:12.915Z,2.55
2022-11-04T03:21:44.260Z,1.15
2022-11-04T03:24:11.581Z,1.63
2022-11-04T03:26:42.129Z,1.73
2022-11-04T03:29:21.312Z,1.35
2022-11-04T03:32:25.230Z,1.83
2022-11-04T03:34:52.182Z,1.77
2022-11-04T03:37:19.344Z,1.70
2022-11-04T03:39:46.619Z,1.17
2022-11-04T03:42:23.172Z,1.90
2022-11-04T03:44:51.514Z,1.40
2022-11-04T03:47:26.702Z,1.30
2022-11-04T03:49:57.827Z,0.90
2022-11-04T03:52:24.821Z,0.75
2022-11-04T03:54:51.704Z,1.02
2022-11-04T03:57:34.128Z,1.38
2022-11-04T04:00:15.554Z,1.23
2022-11-04T04:02:42.432Z,1.35
2022-11-04T04:05:32.356Z,0.77
2022-11-04T04:08:04.215Z,0.60
2022-11-04T04:10:39.236Z,0.70
2022-11-04T04:13:27.726Z,0.63
2022-11-04T04:15:55.902Z,0.30
2022-11-04T04:18:43.191Z,0.30
2022-11-04T04:21:12.643Z,0.50
2022-11-04T04:23:58.099Z,0.20
2022-11-04T04:26:43.356Z,0.47
2022-11-04T04:29:10.407Z,0.20
2022-11-04T04:31:50.308Z,0.20
2022-11-04T04:34:21.868Z,0.30
2022-11-04T04:37:03.930Z,0.20
2022-11-04T04:39:56.427Z,0.32
2022-11-04T04:42:41.665Z,0.30
2022-11-04T04:45:09.222Z,0.30
2022-11-04T04:47:44.645Z,0.30
2022-11-04T04:50:16.656Z,0.30
2022-11-04T04:52:48.692Z,0.30
2022-11-04T04:55:15.980Z,0.15
2022-11-04T04:57:42.891Z,0.20
2022-11-04T05:00:14.590Z,0.30
2022-11-04T05:02:41.579Z,0.50
2022-11-04T05:05:10.788Z,0.57
2022-11-04T05:07:37.878Z,0.50
2022-11-04T05:10:05.275Z,0.47
2022-11-04T05:12:50.631Z,0.70
2022-11-04T05:15:17.657Z,0.80
2022-11-04T05:17:44.637Z,1.42
2022-11-04T05:20:11.948Z,0.80
2022-11-04T05:22:39.243Z,1.05
2022-11-04T05:25:06.544Z,1.25
2022-11-04T05:27:33.482Z,1.40
2022-11-04T05:30:00.701Z,1.33
2022-11-04T05:32:31.892Z,1.02
2022-11-04T05:34:58.993Z,1.80
2022-11-04T05:37:26.090Z,1.92
2022-11-04T05:39:53.188Z,2.08
2022-11-04T05:42:20.182Z,1.20
2022-11-04T05:44:47.549Z,2.13
2022-11-04T05:47:14.884Z,1.90
2022-11-04T05:49:41.954Z,2.17
2022-11-04T05:52:08.954Z,2.13
2022-11-04T05:54:38.248Z,1.63
2022-11-04T05:57:05.596Z,0.95
2022-11-04T05:59:32.609Z,1.48
2022-11-04T06:01:59.758Z,1.40
2022-11-04T06:04:26.854Z,1.20
2022-11-04T06:06:53.873Z,1.27
2022-11-04T06:09:20.873Z,1.33
2022-11-04T06:11:47.981Z,1.83
2022-11-04T06:14:18.703Z,1.00
2022-11-04T06:16:46.095Z,1.30
2022-11-04T06:19:15.945Z,1.63
2022-11-04T06:21:43.287Z,1.15
2022-11-04T06:24:10.448Z,1.92
2022-11-04T06:26:39.566Z,0.98
2022-11-04T06:29:06.509Z,1.13
2022-11-04T06:31:33.383Z,1.83
2022-11-04T06:34:00.317Z,1.38
2022-11-04T06:36:27.435Z,1.48
2022-11-04T06:38:57.583Z,1.50
2022-11-04T06:41:28.448Z,1.65
2022-11-04T06:43:55.510Z,1.05
2022-11-04T06:46:35.516Z,1.67
2022-11-04T06:49:02.714Z,1.58
2022-11-04T06:51:29.958Z,1.50
2022-11-04T06:53:56.940Z,1.15
2022-11-04T06:56:23.861Z,1.40
2022-11-04T06:58:51.318Z,1.02
2022-11-04T07:01:21.745Z,1.20
2022-11-04T07:03:53.791Z,1.05
2022-11-04T07:06:21.209Z,0.32
2022-11-04T07:08:48.953Z,1.33
2022-11-04T07:11:17.474Z,0.90
2022-11-04T07:13:44.427Z,1.15
2022-11-04T07:16:11.532Z,1.30
2022-11-04T07:18:38.656Z,0.45
2022-11-04T07:21:10.333Z,1.23
2022-11-04T07:23:37.782Z,1.08
2022-11-04T07:26:06.534Z,1.13
2022-11-04T07:28:34.171Z,0.98
2022-11-04T07:31:01.599Z,1.50
2022-11-04T07:33:28.611Z,0.85
2022-11-04T07:35:57.188Z,0.88
2022-11-04T07:38:25.568Z,1.05
2022-11-04T07:40:52.461Z,1.40
2022-11-04T07:43:19.480Z,1.38
2022-11-04T07:45:46.776Z,0.75
2022-11-04T07:48:13.744Z,2.10
2022-11-04T07:50:40.849Z,1.45
2022-11-04T07:53:08.414Z,1.13
2022-11-04T07:55:42.900Z,1.15
2022-11-04T07:58:14.059Z,1.17
2022-11-04T08:00:41.299Z,1.40
2022-11-04T08:03:08.754Z,0.70
2022-11-04T08:05:36.046Z,1.40
2022-11-04T08:08:03.086Z,1.17
2022-11-04T08:10:30.283Z,1.13
2022-11-04T08:12:58.495Z,0.80
2022-11-04T08:15:25.456Z,1.15
2022-11-04T08:17:52.421Z,1.23
2022-11-04T08:20:19.437Z,0.60
2022-11-04T08:22:46.555Z,0.70
2022-11-04T08:25:15.100Z,1.35
2022-11-04T08:27:42.229Z,0.52
2022-11-04T08:30:11.873Z,0.60
2022-11-04T08:32:38.881Z,0.40
2022-11-04T08:35:06.765Z,0.40
2022-11-04T08:37:38.711Z,0.35
2022-11-04T08:40:06.596Z,0.15
2022-11-04T08:42:33.789Z,0.20
2022-11-04T08:45:01.354Z,0.20
2022-11-04T08:47:32.432Z,0.28
2022-11-04T08:50:15.557Z,0.20
2022-11-04T08:53:17.278Z,0.15
2022-11-04T08:55:54.071Z,0.55
2022-11-04T08:58:25.827Z,0.30
2022-11-04T09:01:18.923Z,0.38
2022-11-04T09:04:21.726Z,0.68
2022-11-04T09:10:40.256Z,0.20
2022-11-04T09:13:10.835Z,0.20
2022-11-04T09:16:02.458Z,0.50
2022-11-04T09:18:32.687Z,0.30
2022-11-04T09:21:11.252Z,0.10
2022-11-04T09:24:24.356Z,0.40
2022-11-04T09:27:35.724Z,0.20
2022-11-04T09:37:05.514Z,0.73
2022-11-04T09:42:52.491Z,0.30
2022-11-04T09:45:44.137Z,0.10
2022-11-04T09:48:54.888Z,0.35
2022-11-04T09:53:04.260Z,0.98
2022-11-04T10:00:01.076Z,0.20
2022-11-04T10:03:09.541Z,0.30
2022-11-04T10:06:41.440Z,0.28
2022-11-04T10:24:17.218Z,0.10
2022-11-04T10:31:09.981Z,0.10
2022-11-04T10:43:17.946Z,0.28
2022-11-04T10:46:28.007Z,0.10
2022-11-04T10:56:01.264Z,0.10
2022-11-04T11:00:08.683Z,0.30
2022-11-04T11:11:12.784Z,0.10
2022-11-04T11:17:29.374Z,0.20
2022-11-04T11:23:48.842Z,0.35
2022-11-04T11:27:02.088Z,0.30
2022-11-04T11:35:57.988Z,0.63
2022-11-04T11:39:46.898Z,0.20
2022-11-04T11:46:56.450Z,0.32
2022-11-04T11:49:31.165Z,0.90
2022-11-04T11:52:44.826Z,0.30
2022-11-04T11:55:28.486Z,0.10
2022-11-04T12:01:16.613Z,0.65
2022-11-04T12:20:36.232Z,0.10
2022-11-04T12:23:28.252Z,0.22
2022-11-04T12:32:41.703Z,0.15
2022-11-04T12:35:42.181Z,0.20
2022-11-04T12:38:24.665Z,0.32
2022-11-04T12:41:18.680Z,0.10
2022-11-04T12:43:45.315Z,0.25
2022-11-04T12:46:21.605Z,0.10
2022-11-04T12:49:40.819Z,0.05
2022-11-04T12:52:30.307Z,0.10
2022-11-04T12:55:31.537Z,0.10
2022-11-04T12:58:12.146Z,0.20
2022-11-04T13:00:40.493Z,0.13
2022-11-04T13:03:26.745Z,0.35
2022-11-04T13:05:58.027Z,0.13
2022-11-04T13:08:31.917Z,0.20
2022-11-04T13:11:06.268Z,0.00
2022-11-04T13:13:34.451Z,0.03
2022-11-04T13:16:04.015Z,0.00
2022-11-04T13:18:32.491Z,0.10
2022-11-04T13:21:03.458Z,0.10
2022-11-04T13:23:46.350Z,0.10
2022-11-04T13:26:14.581Z,0.10
2022-11-04T13:28:42.986Z,0.10
2022-11-04T13:31:35.527Z,0.10
2022-11-04T13:34:08.304Z,0.10
2022-11-04T13:36:44.631Z,0.00
2022-11-04T13:39:27.129Z,0.10
2022-11-04T13:41:57.268Z,0.30
2022-11-04T13:44:45.696Z,0.00
2022-11-04T13:47:24.668Z,0.03
2022-11-04T13:49:52.786Z,0.00
2022-11-04T13:52:19.727Z,0.00
2022-11-04T13:54:52.878Z,0.00
2022-11-04T13:57:27.668Z,0.10
2022-11-04T14:00:15.090Z,0.00
2022-11-04T14:02:46.148Z,0.00
2022-11-04T14:05:42.533Z,0.00
2022-11-04T14:08:12.371Z,0.00
2022-11-04T14:10:48.246Z,0.00
2022-11-04T14:13:29.691Z,0.00
2022-11-04T14:16:20.429Z,0.00
2022-11-04T14:18:49.014Z,0.00
2022-11-04T14:21:29.447Z,0.00
2022-11-04T14:24:02.606Z,0.10
2022-11-04T14:26:47.204Z,0.00
2022-11-04T14:29:23.454Z,0.03
2022-11-04T14:34:44.529Z,0.10
2022-11-04T14:37:26.673Z,0.00
2022-11-04T14:39:58.018Z,0.10
2022-11-04T14:42:43.490Z,0.00
2022-11-04T14:45:23.038Z,0.00
2022-11-04T14:48:00.451Z,0.00
2022-11-04T14:50:55.662Z,0.00
2022-11-04T14:53:33.683Z,0.10
2022-11-04T14:56:23.592Z,0.00
2022-11-04T14:58:59.641Z,0.10
2022-11-04T15:01:35.011Z,0.00
2022-11-04T15:04:26.882Z,0.03
2022-11-04T15:06:57.417Z,0.00
2022-11-04T15:09:35.335Z,0.00
2022-11-04T15:12:29.960Z,0.10
2022-11-04T15:14:57.318Z,0.00
2022-11-04T15:17:25.510Z,0.00
2022-11-04T15:19:53.476Z,0.00
2022-11-04T15:22:20.761Z,0.08
2022-11-04T15:24:48.030Z,0.00
2022-11-04T15:27:16.983Z,0.00
2022-11-04T15:30:00.833Z,0.10
2022-11-04T15:32:27.792Z,0.10
2022-11-04T15:34:55.109Z,0.10
2022-11-04T15:37:23.648Z,0.10
2022-11-04T15:39:52.322Z,0.10
2022-11-04T15:42:42.867Z,0.52
2022-11-04T15:45:30.300Z,0.00
2022-11-04T15:48:33.651Z,0.10
2022-11-04T15:51:17.496Z,0.00
2022-11-04T15:53:56.462Z,0.08
2022-11-04T15:56:27.413Z,0.00
2022-11-04T15:58:55.053Z,0.10
2022-11-04T16:01:34.941Z,0.10
2022-11-04T16:04:02.951Z,0.00
2022-11-04T16:06:38.149Z,0.20
2022-11-04T16:09:28.509Z,0.00
2022-11-04T16:12:15.546Z,0.00
2022-11-04T16:14:52.767Z,0.00
2022-11-04T16:17:20.466Z,0.15
2022-11-04T16:19:49.262Z,0.10
2022-11-04T16:22:38.780Z,0.03
2022-11-04T16:25:07.432Z,0.00
2022-11-04T16:27:35.069Z,0.10
2022-11-04T16:30:01.965Z,0.00
2022-11-04T16:32:31.684Z,0.00
2022-11-04T16:35:00.951Z,0.10
2022-11-04T16:37:31.658Z,0.00
2022-11-04T16:39:58.633Z,0.08
2022-11-04T16:42:25.597Z,0.00
2022-11-04T16:44:57.016Z,0.10
2022-11-04T16:47:25.856Z,0.03
2022-11-04T16:49:52.876Z,0.15
2022-11-04T16:52:23.015Z,0.10
2022-11-04T16:54:50.119Z,0.13
2022-11-04T16:57:46.855Z,0.10
2022-11-04T17:00:21.854Z,0.10
2022-11-04T17:02:49.617Z,0.10
2022-11-04T17:05:17.060Z,0.10
2022-11-04T17:08:12.320Z,0.10
2022-11-04T17:10:39.448Z,0.10
2022-11-04T17:13:06.449Z,0.10
2022-11-04T17:15:33.758Z,0.20
2022-11-04T17:18:00.641Z,0.30
2022-11-04T17:20:27.569Z,0.38
2022-11-04T17:22:54.676Z,1.05
2022-11-04T17:25:23.924Z,0.20
2022-11-04T17:27:51.287Z,0.40
2022-11-04T17:30:18.548Z,0.20
2022-11-04T17:32:45.835Z,0.10
2022-11-04T17:35:12.861Z,0.20
2022-11-04T17:37:40.033Z,0.20
2022-11-04T17:40:09.787Z,0.82
2022-11-04T17:42:55.213Z,0.40
2022-11-04T17:45:22.206Z,0.40
2022-11-04T17:47:49.177Z,0.20
2022-11-04T17:50:16.205Z,0.20
2022-11-04T17:52:44.029Z,0.20
2022-11-04T17:55:16.346Z,0.10
2022-11-04T17:57:44.490Z,0.10
2022-11-04T18:00:14.226Z,0.10
2022-11-04T18:02:41.650Z,0.73
2022-11-04T18:05:09.038Z,0.10
2022-11-04T18:07:35.957Z,0.10
2022-11-04T18:10:02.922Z,0.20
2022-11-04T18:12:41.128Z,0.08
2022-11-04T18:15:10.271Z,0.10
2022-11-04T18:17:41.185Z,0.15
2022-11-04T18:20:13.996Z,0.10
2022-11-04T18:22:42.386Z,0.20
2022-11-04T18:25:10.022Z,0.30
2022-11-04T18:27:37.032Z,0.30
2022-11-04T18:30:04.408Z,0.50
2022-11-04T18:32:32.635Z,0.47
2022-11-04T18:34:59.621Z,0.50
2022-11-04T18:37:26.556Z,0.90
2022-11-04T18:39:53.544Z,0.50
2022-11-04T18:42:20.538Z,0.60
2022-11-04T18:44:47.474Z,0.70
2022-11-04T18:47:14.578Z,0.80
2022-11-04T18:49:42.062Z,1.48
2022-11-04T18:52:08.950Z,0.95
2022-11-04T18:54:36.330Z,0.70
2022-11-04T18:57:04.737Z,0.73
2022-11-04T19:04:44.753Z,0.40
2022-11-04T19:07:11.788Z,0.50
2022-11-04T19:09:47.564Z,0.50
2022-11-04T19:15:01.266Z,0.40
2022-11-04T19:17:28.195Z,0.70
2022-11-04T19:20:00.014Z,0.55
2022-11-04T19:22:27.081Z,0.47
2022-11-04T19:24:54.084Z,0.90
2022-11-04T19:27:22.942Z,2.03
2022-11-04T19:29:50.045Z,1.00
2022-11-04T19:32:16.992Z,1.02
2022-11-04T19:34:44.041Z,1.45
2022-11-04T19:37:11.406Z,1.25
2022-11-04T19:39:38.471Z,2.30
2022-11-04T19:42:24.618Z,2.13
2022-11-04T19:44:51.694Z,1.88
2022-11-04T19:47:18.774Z,2.38
2022-11-04T19:49:45.724Z,2.10
2022-11-04T19:52:12.629Z,3.08
2022-11-04T19:54:40.009Z,2.47
2022-11-04T19:57:07.035Z,3.22
2022-11-04T19:59:34.840Z,3.15
2022-11-04T20:02:02.215Z,2.40
2022-11-04T20:04:29.299Z,3.40
2022-11-04T20:06:57.203Z,5.13
2022-11-04T20:09:26.158Z,3.78
2022-11-04T20:12:12.374Z,5.32
2022-11-04T20:14:42.196Z,4.18
2022-11-04T20:17:09.312Z,4.25
2022-11-04T20:19:37.043Z,4.13
2022-11-04T20:22:04.595Z,3.42
2022-11-04T20:24:31.729Z,3.65
2022-11-04T20:26:58.672Z,4.18
2022-11-04T20:29:26.252Z,5.72
2022-11-04T20:31:53.541Z,4.35
2022-11-04T20:34:20.640Z,5.35
2022-11-04T20:36:47.637Z,4.68
2022-11-04T20:39:16.211Z,5.10
2022-11-04T20:41:43.497Z,6.00
2022-11-04T20:44:11.701Z,4.85
2022-11-04T20:46:38.881Z,5.35
2022-11-04T20:49:06.123Z,4.05
2022-11-04T20:51:34.397Z,5.43
2022-11-04T20:54:05.064Z,5.00
2022-11-04T20:56:36.384Z,5.63
2022-11-04T20:59:06.411Z,5.65
2022-11-04T21:01:37.070Z,6.00
2022-11-04T21:04:08.270Z,6.05
2022-11-04T21:06:35.891Z,5.97
2022-11-04T21:09:03.172Z,6.30
2022-11-04T21:11:32.467Z,6.90
2022-11-04T21:13:59.586Z,5.75
2022-11-04T21:16:26.785Z,6.22
2022-11-04T21:18:54.571Z,6.22
2022-11-04T21:21:21.509Z,6.18
2022-11-04T21:23:48.751Z,6.20
2022-11-04T21:26:23.183Z,6.85
2022-11-04T21:28:54.933Z,7.55
2022-11-04T21:31:22.502Z,6.40
2022-11-04T21:33:49.621Z,6.50
2022-11-04T21:36:16.787Z,6.55
2022-11-04T21:38:44.042Z,7.20
2022-11-04T21:41:13.406Z,7.10
2022-11-04T21:43:40.920Z,7.32
2022-11-04T21:46:13.262Z,7.22
2022-11-04T21:48:40.714Z,7.90
2022-11-04T21:51:09.125Z,8.57
2022-11-04T21:53:36.272Z,9.65
2022-11-04T21:56:17.274Z,9.15
2022-11-04T21:58:44.665Z,9.02
2022-11-04T22:01:17.296Z,8.55
2022-11-04T22:03:44.849Z,8.98
2022-11-04T22:06:13.392Z,8.38
2022-11-04T22:08:44.601Z,8.32
2022-11-04T22:11:16.565Z,8.57
2022-11-04T22:13:43.462Z,9.05
2022-11-04T22:16:18.434Z,8.80
2022-11-04T22:18:45.624Z,8.55
2022-11-04T22:21:16.763Z,7.72
2022-11-04T22:23:44.037Z,7.55
2022-11-04T22:26:31.139Z,8.50
2022-11-04T22:33:53.304Z,7.50
2022-11-04T22:36:40.828Z,6.70
2022-11-04T22:39:15.046Z,6.93
2022-11-04T22:41:43.977Z,8.35
2022-11-04T22:44:11.035Z,7.43
2022-11-04T22:46:38.436Z,6.25
2022-11-04T22:49:05.682Z,6.78
2022-11-04T22:51:32.649Z,7.00
2022-11-04T22:54:04.836Z,6.47
2022-11-04T22:56:34.977Z,6.93
2022-11-04T22:59:02.229Z,6.15
2022-11-04T23:01:31.607Z,6.35
2022-11-04T23:04:12.352Z,5.75
2022-11-04T23:06:39.648Z,5.10
2022-11-04T23:09:06.806Z,5.35
2022-11-04T23:11:52.914Z,6.43
2022-11-04T23:14:39.689Z,5.93
2022-11-04T23:17:38.791Z,5.93
2022-11-04T23:20:08.470Z,6.30
2022-11-04T23:22:53.956Z,5.18
2022-11-04T23:25:21.056Z,5.32
2022-11-04T23:28:12.506Z,4.57
2022-11-04T23:30:45.080Z,5.03
2022-11-04T23:33:13.305Z,4.57
2022-11-04T23:36:03.165Z,4.80
2022-11-04T23:38:30.497Z,4.80
2022-11-04T23:41:17.755Z,4.85
2022-11-04T23:43:44.788Z,4.20
2022-11-04T23:46:30.893Z,4.63
2022-11-04T23:49:16.446Z,4.63
2022-11-04T23:52:01.742Z,4.05
2022-11-04T23:54:47.526Z,4.27
2022-11-04T23:57:36.461Z,4.17
